Time;durP1;ratioP1;P1;durP2;ratioP2;P2;SDS_P1;SDS_P2;PMS_P1;PMS_P2;Temp;Humidity;BMP_temperature;BMP_pressure;BME280_temperature;BME280_humidity;BME280_pressure;Samples;Min_cycle;Max_cycle;Signal;HPM_P1;HPM_P2
2023/09/30 00:00:16;;;;;;;17.60;5.23;;;13.00;99.90;;;;;;5014314;28;20230;-49
2023/09/30 00:02:41;;;;;;;17.40;4.70;;;13.00;99.90;;;;;;5013574;28;20190;-48
2023/09/30 00:05:08;;;;;;;19.37;5.50;;;13.00;99.90;;;;;;5013595;28;20184;-47
2023/09/30 00:07:33;;;;;;;17.40;4.67;;;12.90;99.90;;;;;;5013804;28;20265;-50
2023/09/30 00:10:00;;;;;;;20.90;5.70;;;12.80;99.90;;;;;;5014627;28;20523;-48
2023/09/30 00:12:26;;;;;;;18.97;5.03;;;12.80;99.90;;;;;;5014202;28;20558;-48
2023/09/30 00:14:52;;;;;;;20.00;5.30;;;12.90;99.90;;;;;;5033980;28;20445;-47
2023/09/30 00:17:17;;;;;;;22.43;4.90;;;12.90;99.90;;;;;;5034478;28;20424;-49
2023/09/30 00:19:44;;;;;;;25.90;6.00;;;12.80;99.90;;;;;;5022314;28;20210;-49
2023/09/30 00:22:10;;;;;;;29.90;5.20;;;12.80;99.90;;;;;;5013339;28;20225;-49
2023/09/30 00:24:35;;;;;;;21.40;5.23;;;12.80;99.90;;;;;;5011984;28;20520;-49
2023/09/30 00:27:01;;;;;;;21.73;5.07;;;12.80;99.90;;;;;;5012298;28;20210;-49
2023/09/30 00:29:27;;;;;;;14.60;4.73;;;12.80;99.90;;;;;;5013771;28;20225;-49
2023/09/30 00:31:52;;;;;;;17.80;4.47;;;12.80;99.90;;;;;;5012962;28;20191;-48
2023/09/30 00:34:18;;;;;;;23.17;4.70;;;12.80;99.90;;;;;;5013046;28;20274;-49
2023/09/30 00:36:43;;;;;;;18.40;4.33;;;12.80;99.90;;;;;;5013421;28;20190;-49
2023/09/30 00:39:09;;;;;;;13.40;4.70;;;12.80;99.90;;;;;;5013350;28;20241;-49
2023/09/30 00:41:36;;;;;;;24.20;4.17;;;12.80;99.90;;;;;;5012496;28;20225;-50
2023/09/30 00:44:02;;;;;;;18.33;5.33;;;12.90;99.90;;;;;;5013694;28;20202;-50
2023/09/30 00:46:37;;;;;;;16.00;4.27;;;12.90;99.90;;;;;;5012025;28;20489;-49
2023/09/30 00:49:03;;;;;;;24.33;4.90;;;12.90;99.90;;;;;;5012263;28;20931;-51
2023/09/30 00:51:29;;;;;;;17.87;4.27;;;13.00;99.90;;;;;;5013261;28;20473;-49
2023/09/30 00:53:58;;;;;;;16.30;4.63;;;13.00;99.90;;;;;;5012825;28;20852;-49
2023/09/30 00:56:27;;;;;;;25.20;4.70;;;13.00;99.90;;;;;;5012874;28;20602;-49
2023/09/30 00:58:53;;;;;;;19.03;4.57;;;13.00;99.90;;;;;;5012393;28;20448;-48
2023/09/30 01:01:20;;;;;;;15.40;3.57;;;13.00;99.90;;;;;;5011936;28;20446;-49
2023/09/30 01:03:49;;;;;;;22.47;4.80;;;12.90;99.90;;;;;;5012189;28;20195;-48
2023/09/30 01:06:14;;;;;;;17.87;4.60;;;12.90;99.90;;;;;;5013111;28;20536;-49
2023/09/30 01:08:41;;;;;;;18.87;4.60;;;12.90;99.90;;;;;;5012280;28;20945;-48
2023/09/30 01:11:07;;;;;;;19.43;3.97;;;12.90;99.90;;;;;;5012400;28;20188;-50
2023/09/30 01:13:36;;;;;;;17.20;5.70;;;12.90;99.90;;;;;;5012431;28;20443;-53
2023/09/30 01:16:09;;;;;;;18.00;4.27;;;12.80;99.90;;;;;;5012607;28;20222;-49
2023/09/30 01:18:36;;;;;;;21.60;5.10;;;12.90;99.90;;;;;;5000179;28;20454;-49
2023/09/30 01:21:04;;;;;;;28.17;5.33;;;12.90;99.90;;;;;;5012232;28;20527;-50
2023/09/30 01:23:31;;;;;;;23.43;4.43;;;12.90;99.90;;;;;;5008234;28;20862;-49
2023/09/30 01:25:56;;;;;;;22.57;4.37;;;12.80;99.90;;;;;;5013001;28;20438;-50
2023/09/30 01:28:23;;;;;;;20.00;4.40;;;12.80;99.90;;;;;;5012649;28;20783;-49
2023/09/30 01:30:48;;;;;;;21.23;4.50;;;12.80;99.90;;;;;;5010881;28;20761;-49
2023/09/30 01:33:16;;;;;;;16.40;4.77;;;12.80;99.90;;;;;;5013075;28;20444;-49
2023/09/30 01:35:42;;;;;;;17.10;4.87;;;12.80;99.90;;;;;;5012131;28;20546;-47
2023/09/30 01:38:07;;;;;;;20.60;4.53;;;12.80;99.90;;;;;;5012666;28;20441;-48
2023/09/30 01:40:33;;;;;;;13.47;4.50;;;12.80;99.90;;;;;;5012034;28;20192;-48
2023/09/30 01:42:59;;;;;;;14.83;4.27;;;12.70;99.90;;;;;;5013138;28;20260;-48
2023/09/30 01:45:24;;;;;;;18.40;4.93;;;12.70;99.90;;;;;;5011926;28;20679;-49
2023/09/30 01:47:50;;;;;;;17.30;4.30;;;12.70;99.90;;;;;;5011900;28;20245;-47
2023/09/30 01:50:15;;;;;;;28.23;4.60;;;12.70;99.90;;;;;;5011389;28;20638;-48
2023/09/30 01:52:41;;;;;;;18.80;4.93;;;12.70;99.90;;;;;;5010382;28;20236;-47
2023/09/30 01:55:07;;;;;;;25.00;4.83;;;12.60;99.90;;;;;;5011752;28;20193;-48
2023/09/30 01:57:32;;;;;;;17.57;4.03;;;12.60;99.90;;;;;;5010852;28;20198;-48
2023/09/30 01:59:58;;;;;;;24.73;5.60;;;12.60;99.90;;;;;;5011309;28;20186;-47
2023/09/30 02:02:23;;;;;;;17.60;4.33;;;12.60;99.90;;;;;;5011436;28;20190;-48
2023/09/30 02:04:49;;;;;;;14.93;4.30;;;12.60;99.90;;;;;;5011812;28;20240;-47
2023/09/30 02:07:14;;;;;;;22.70;5.17;;;12.60;99.90;;;;;;5011986;28;20198;-49
2023/09/30 02:09:40;;;;;;;21.63;5.27;;;12.50;99.90;;;;;;5010764;28;20566;-48
2023/09/30 02:12:08;;;;;;;15.00;4.50;;;12.50;99.90;;;;;;5011524;28;20211;-49
2023/09/30 02:14:33;;;;;;;21.10;5.30;;;12.50;99.90;;;;;;5012424;28;20194;-49
2023/09/30 02:16:59;;;;;;;15.17;4.27;;;12.50;99.90;;;;;;5011720;28;20831;-47
2023/09/30 02:19:27;;;;;;;27.27;5.37;;;12.40;99.90;;;;;;5012440;28;20189;-48
2023/09/30 02:21:52;;;;;;;21.20;4.90;;;12.50;99.90;;;;;;5011614;28;20191;-47
2023/09/30 02:24:18;;;;;;;26.67;5.13;;;12.50;99.90;;;;;;5012154;28;20493;-48
2023/09/30 02:26:43;;;;;;;25.63;5.20;;;12.50;99.90;;;;;;5011964;28;20241;-48
2023/09/30 02:29:09;;;;;;;20.93;4.97;;;12.40;99.90;;;;;;5011215;28;20222;-49
2023/09/30 02:31:35;;;;;;;35.50;6.23;;;12.50;99.90;;;;;;5012426;28;20218;-50
2023/09/30 02:34:03;;;;;;;15.80;5.07;;;12.50;99.90;;;;;;5011205;28;20758;-47
2023/09/30 02:36:29;;;;;;;20.80;4.70;;;12.40;99.90;;;;;;5013348;28;20186;-48
2023/09/30 02:38:54;;;;;;;19.50;4.70;;;12.50;99.90;;;;;;5012376;28;20801;-48
2023/09/30 02:41:20;;;;;;;17.50;4.93;;;12.40;99.90;;;;;;5011723;28;20652;-48
2023/09/30 02:43:46;;;;;;;12.33;4.50;;;12.40;99.90;;;;;;5012208;28;20264;-48
2023/09/30 02:46:12;;;;;;;31.57;6.17;;;12.50;99.90;;;;;;5016428;28;20198;-48
2023/09/30 02:48:37;;;;;;;20.83;5.90;;;12.50;99.90;;;;;;5012351;28;20473;-49
2023/09/30 02:51:04;;;;;;;29.37;5.17;;;12.40;99.90;;;;;;5012591;28;20491;-48
2023/09/30 02:53:29;;;;;;;25.73;5.30;;;12.30;99.90;;;;;;5012428;28;20185;-48
2023/09/30 02:55:56;;;;;;;21.80;6.10;;;12.30;99.90;;;;;;5011656;28;20524;-48
2023/09/30 02:58:24;;;;;;;22.47;4.97;;;12.40;99.90;;;;;;5011772;28;20220;-48
2023/09/30 03:00:50;;;;;;;19.97;5.60;;;12.30;99.90;;;;;;5009860;28;20484;-48
2023/09/30 03:03:15;;;;;;;19.30;4.70;;;12.30;99.90;;;;;;5011188;28;20429;-47
2023/09/30 03:05:41;;;;;;;19.90;6.10;;;12.30;99.90;;;;;;5009754;28;20542;-48
2023/09/30 03:08:07;;;;;;;25.60;6.00;;;12.30;99.90;;;;;;5011288;28;20228;-48
2023/09/30 03:10:33;;;;;;;23.53;5.90;;;12.30;99.90;;;;;;5013536;28;20191;-47
2023/09/30 03:13:01;;;;;;;16.50;5.03;;;12.30;99.90;;;;;;5014345;28;20245;-48
2023/09/30 03:15:28;;;;;;;24.57;6.13;;;12.30;99.90;;;;;;5012562;28;20183;-49
2023/09/30 03:17:55;;;;;;;23.53;6.03;;;12.30;99.90;;;;;;5013955;28;20449;-49
2023/09/30 03:20:21;;;;;;;21.00;6.20;;;12.30;99.90;;;;;;5015424;28;20485;-49
2023/09/30 03:22:47;;;;;;;14.00;5.70;;;12.20;99.90;;;;;;5013606;28;20493;-48
2023/09/30 03:25:17;;;;;;;20.53;5.60;;;12.20;99.90;;;;;;5015431;28;20429;-49
2023/09/30 03:27:44;;;;;;;22.57;6.80;;;12.20;99.90;;;;;;5014183;28;20437;-49
2023/09/30 03:30:11;;;;;;;17.70;5.50;;;12.20;99.90;;;;;;5014249;28;20777;-49
2023/09/30 03:32:37;;;;;;;28.33;5.80;;;12.20;99.90;;;;;;5013746;28;20449;-49
2023/09/30 03:35:05;;;;;;;30.43;5.57;;;12.20;99.90;;;;;;5013391;28;20476;-48
2023/09/30 03:37:32;;;;;;;23.67;5.40;;;12.30;99.90;;;;;;5014873;28;20516;-49
2023/09/30 03:39:57;;;;;;;19.50;5.80;;;12.30;99.90;;;;;;5012521;28;20447;-48
2023/09/30 03:42:23;;;;;;;19.63;4.63;;;12.30;99.90;;;;;;5013444;28;20436;-48
2023/09/30 03:44:49;;;;;;;17.10;4.70;;;12.30;99.90;;;;;;5013482;28;20192;-49
2023/09/30 03:47:16;;;;;;;23.53;5.43;;;12.20;99.90;;;;;;5015121;28;20192;-49
2023/09/30 03:49:42;;;;;;;22.93;5.93;;;12.20;99.90;;;;;;5014834;28;20230;-48
2023/09/30 03:52:09;;;;;;;17.57;6.33;;;12.20;99.90;;;;;;5014010;28;20437;-49
2023/09/30 03:54:35;;;;;;;17.80;5.93;;;12.20;99.90;;;;;;5016295;28;20437;-49
2023/09/30 03:57:01;;;;;;;20.20;5.67;;;12.30;99.90;;;;;;5015031;28;21000;-48
2023/09/30 03:59:27;;;;;;;23.47;6.50;;;12.20;99.90;;;;;;5014604;28;20200;-48
2023/09/30 04:01:53;;;;;;;22.63;6.30;;;12.20;99.90;;;;;;5014340;28;20188;-48
2023/09/30 04:04:21;;;;;;;24.40;5.93;;;12.20;99.90;;;;;;5014814;28;20940;-54
2023/09/30 04:06:47;;;;;;;19.00;5.77;;;12.20;99.90;;;;;;5014734;28;20186;-48
2023/09/30 04:09:13;;;;;;;23.03;5.93;;;12.20;99.90;;;;;;5022899;28;20479;-49
2023/09/30 04:11:39;;;;;;;24.83;6.43;;;12.20;99.90;;;;;;5020897;28;20444;-49
2023/09/30 04:14:08;;;;;;;24.80;6.63;;;12.20;99.90;;;;;;5013670;28;20982;-48
2023/09/30 04:16:35;;;;;;;16.13;4.83;;;12.20;99.90;;;;;;5013660;28;20929;-47
2023/09/30 04:19:01;;;;;;;26.70;7.10;;;12.20;99.90;;;;;;5013868;28;20918;-48
2023/09/30 04:21:28;;;;;;;29.57;6.80;;;12.20;99.90;;;;;;5013173;28;20456;-49
2023/09/30 04:23:54;;;;;;;16.73;5.67;;;12.20;99.90;;;;;;5006866;28;20788;-48
2023/09/30 04:26:19;;;;;;;22.40;5.83;;;12.20;99.90;;;;;;5013261;28;20480;-49
2023/09/30 04:28:45;;;;;;;32.80;6.37;;;12.20;99.90;;;;;;5012483;28;20559;-48
2023/09/30 04:31:13;;;;;;;18.70;5.90;;;12.20;99.90;;;;;;5012568;28;20550;-49
2023/09/30 04:33:39;;;;;;;23.40;6.80;;;12.20;99.90;;;;;;5013372;28;20216;-48
2023/09/30 04:36:08;;;;;;;24.43;6.17;;;12.20;99.90;;;;;;5011487;28;20451;-49
2023/09/30 04:38:35;;;;;;;18.97;6.73;;;12.20;99.90;;;;;;5013394;28;20455;-48
2023/09/30 04:41:00;;;;;;;22.10;6.93;;;12.20;99.90;;;;;;5012637;28;20675;-48
2023/09/30 04:43:29;;;;;;;32.00;6.83;;;12.20;99.90;;;;;;5012366;28;21009;-49
2023/09/30 04:45:56;;;;;;;19.73;6.53;;;12.20;99.90;;;;;;5012265;28;20196;-48
2023/09/30 04:48:23;;;;;;;25.27;6.70;;;12.20;99.90;;;;;;5012892;28;20484;-49
2023/09/30 04:50:48;;;;;;;25.33;7.27;;;12.30;99.90;;;;;;5011544;28;20446;-48
2023/09/30 04:53:15;;;;;;;18.57;6.57;;;12.20;99.90;;;;;;5013056;28;20859;-48
2023/09/30 04:55:41;;;;;;;17.93;5.90;;;12.20;99.90;;;;;;5012185;28;20253;-48
2023/09/30 04:58:07;;;;;;;24.00;6.97;;;12.30;99.90;;;;;;5013000;28;20454;-48
2023/09/30 05:00:33;;;;;;;30.03;7.27;;;12.20;99.90;;;;;;5011559;28;20191;-48
2023/09/30 05:02:59;;;;;;;17.53;7.07;;;12.30;99.90;;;;;;5011850;28;20199;-48
2023/09/30 05:05:24;;;;;;;17.43;6.80;;;12.30;99.90;;;;;;5012491;28;20451;-48
2023/09/30 05:07:50;;;;;;;20.80;6.20;;;12.30;99.90;;;;;;5011552;28;20451;-48
2023/09/30 05:10:16;;;;;;;17.63;7.00;;;12.30;99.90;;;;;;5011243;28;20252;-49
2023/09/30 05:12:45;;;;;;;23.20;7.57;;;12.30;99.90;;;;;;5012599;28;20210;-48
2023/09/30 05:15:13;;;;;;;33.03;8.10;;;12.30;99.90;;;;;;5012074;28;20800;-49
2023/09/30 05:17:38;;;;;;;26.37;7.90;;;12.30;99.90;;;;;;5010576;28;20443;-50
2023/09/30 05:20:06;;;;;;;23.23;7.07;;;12.40;99.90;;;;;;5012132;28;20441;-49
2023/09/30 05:22:33;;;;;;;26.30;8.23;;;12.30;99.90;;;;;;5013264;28;20207;-48
2023/09/30 05:25:00;;;;;;;28.30;7.80;;;12.30;99.90;;;;;;5012591;28;20441;-49
2023/09/30 05:27:26;;;;;;;19.60;6.50;;;12.30;99.90;;;;;;5012965;28;20466;-49
2023/09/30 05:29:52;;;;;;;27.53;6.43;;;12.40;99.90;;;;;;5011401;28;21378;-48
2023/09/30 05:32:18;;;;;;;22.50;6.73;;;12.40;99.90;;;;;;5010151;28;20528;-49
2023/09/30 05:34:44;;;;;;;31.07;6.37;;;12.40;99.90;;;;;;5012247;28;20253;-48
2023/09/30 05:37:09;;;;;;;27.93;6.77;;;12.30;99.90;;;;;;5011435;28;20543;-49
2023/09/30 05:39:35;;;;;;;22.33;6.83;;;12.30;99.90;;;;;;5011463;28;20193;-48
2023/09/30 05:42:01;;;;;;;23.67;6.63;;;12.40;99.90;;;;;;5011506;28;20559;-48
2023/09/30 05:44:27;;;;;;;15.70;6.63;;;12.40;99.90;;;;;;5011860;28;20224;-49
2023/09/30 05:46:53;;;;;;;23.60;6.00;;;12.40;99.90;;;;;;5013007;28;20513;-48
2023/09/30 05:49:19;;;;;;;27.10;6.30;;;12.40;99.90;;;;;;5011932;28;20512;-48
2023/09/30 05:51:45;;;;;;;23.00;6.60;;;12.40;99.90;;;;;;5010902;28;20468;-49
2023/09/30 05:54:11;;;;;;;25.90;6.70;;;12.50;99.90;;;;;;5013148;28;20271;-49
2023/09/30 05:56:37;;;;;;;17.03;6.40;;;12.50;99.90;;;;;;5012325;28;20929;-48
2023/09/30 05:59:04;;;;;;;24.77;7.37;;;12.50;99.90;;;;;;5010485;28;20871;-48
2023/09/30 06:01:32;;;;;;;19.23;6.37;;;12.50;99.90;;;;;;5011683;28;20443;-49
2023/09/30 06:03:58;;;;;;;13.37;5.83;;;12.50;99.90;;;;;;5012345;28;20434;-48
2023/09/30 06:06:24;;;;;;;15.10;5.47;;;12.60;99.90;;;;;;5011339;28;20448;-49
2023/09/30 06:08:50;;;;;;;19.67;5.90;;;12.60;99.90;;;;;;5012801;28;20228;-49
2023/09/30 06:11:19;;;;;;;21.30;7.07;;;12.60;99.90;;;;;;5009333;28;20457;-49
2023/09/30 06:13:48;;;;;;;18.43;5.90;;;12.60;99.90;;;;;;5010591;28;20205;-49
2023/09/30 06:16:14;;;;;;;20.97;5.90;;;12.60;99.90;;;;;;5010959;28;20457;-49
2023/09/30 06:18:39;;;;;;;18.97;5.40;;;12.60;99.90;;;;;;5012220;28;20457;-51
2023/09/30 06:21:06;;;;;;;22.87;6.07;;;12.70;99.90;;;;;;5011136;28;20272;-48
2023/09/30 06:23:31;;;;;;;20.17;5.93;;;12.70;99.90;;;;;;5010715;28;20237;-48
2023/09/30 06:26:01;;;;;;;18.80;5.27;;;12.70;99.90;;;;;;5008551;28;20873;-50
2023/09/30 06:28:28;;;;;;;20.30;5.63;;;12.70;99.90;;;;;;5010895;28;20234;-50
2023/09/30 06:30:53;;;;;;;18.67;6.03;;;12.70;99.90;;;;;;5011731;28;20495;-50
2023/09/30 06:33:19;;;;;;;26.47;7.33;;;12.60;99.90;;;;;;5012181;28;20567;-51
2023/09/30 06:35:50;;;;;;;23.03;6.27;;;12.60;99.90;;;;;;5011328;28;20194;-50
2023/09/30 06:38:19;;;;;;;13.70;5.07;;;12.70;99.90;;;;;;5008525;28;20843;-51
2023/09/30 06:40:47;;;;;;;20.47;5.47;;;12.70;99.90;;;;;;5010276;28;20449;-50
2023/09/30 06:43:15;;;;;;;20.43;5.97;;;12.80;99.90;;;;;;5010348;28;20461;-50
2023/09/30 06:45:46;;;;;;;22.63;7.23;;;12.80;99.90;;;;;;5012540;28;20846;-50
2023/09/30 06:48:12;;;;;;;22.20;5.87;;;12.80;99.90;;;;;;5015576;28;20473;-49
2023/09/30 06:50:48;;;;;;;22.10;5.83;;;12.90;99.90;;;;;;5014175;28;20442;-50
2023/09/30 06:53:17;;;;;;;22.63;5.83;;;12.90;99.90;;;;;;5015524;28;20475;-50
2023/09/30 06:55:43;;;;;;;19.50;5.67;;;13.00;99.90;;;;;;5014986;28;20438;-50
2023/09/30 06:58:10;;;;;;;19.30;6.70;;;13.10;98.70;;;;;;5014512;28;20500;-50
2023/09/30 07:00:37;;;;;;;21.80;5.70;;;13.10;98.50;;;;;;5014658;28;20442;-50
2023/09/30 07:03:03;;;;;;;21.67;5.77;;;13.20;96.60;;;;;;5016227;28;20829;-50
2023/09/30 07:05:29;;;;;;;17.50;5.50;;;13.30;46.40;;;;;;5014397;28;20478;-50
2023/09/30 07:07:55;;;;;;;18.53;5.40;;;13.40;46.80;;;;;;5012994;28;20947;-50
2023/09/30 07:10:21;;;;;;;20.53;5.23;;;13.50;1.00;;;;;;5014784;28;20447;-51
2023/09/30 07:12:46;;;;;;;18.93;4.90;;;13.80;1.00;;;;;;5013847;28;20442;-51
2023/09/30 07:15:13;;;;;;;15.73;4.77;;;14.20;1.00;;;;;;5014683;28;20652;-51
2023/09/30 07:17:39;;;;;;;19.83;5.50;;;14.60;99.90;;;;;;5015187;28;20636;-52
2023/09/30 07:20:07;;;;;;;15.87;4.87;;;15.10;99.90;;;;;;5014302;28;20438;-50
2023/09/30 07:22:33;;;;;;;15.70;4.30;;;15.40;99.90;;;;;;5013260;28;20806;-51
2023/09/30 07:24:59;;;;;;;15.20;5.00;;;15.70;99.90;;;;;;5014314;28;20781;-51
2023/09/30 07:27:24;;;;;;;12.17;4.00;;;15.90;99.90;;;;;;5015004;28;20510;-52
2023/09/30 07:29:50;;;;;;;14.60;4.60;;;16.10;99.90;;;;;;5015420;28;20596;-51
2023/09/30 07:32:16;;;;;;;21.40;5.40;;;16.40;99.90;;;;;;5015191;28;20181;-52
2023/09/30 07:34:42;;;;;;;12.80;4.20;;;16.70;44.00;;;;;;5015084;28;20180;-53
2023/09/30 07:37:07;;;;;;;11.60;4.20;;;16.70;7.40;;;;;;5015273;28;20230;-52
2023/09/30 07:39:34;;;;;;;14.33;4.17;;;16.80;1.00;;;;;;5014027;28;20185;-52
2023/09/30 07:42:00;;;;;;;14.90;5.00;;;16.80;1.00;;;;;;5014881;28;20589;-52
2023/09/30 07:44:26;;;;;;;20.70;4.33;;;17.00;1.00;;;;;;5014837;28;20427;-52
2023/09/30 07:46:53;;;;;;;11.93;3.80;;;17.10;1.00;;;;;;5014730;28;20455;-52
2023/09/30 07:49:18;;;;;;;16.07;4.13;;;17.40;1.00;;;;;;5014928;28;20216;-52
2023/09/30 07:51:46;;;;;;;12.07;4.00;;;17.60;1.00;;;;;;5014935;28;20480;-50
2023/09/30 07:54:12;;;;;;;10.77;3.87;;;18.00;1.00;;;;;;5014630;28;20654;-54
2023/09/30 07:56:38;;;;;;;16.57;3.87;;;18.40;1.00;;;;;;5014621;28;20503;-53
2023/09/30 07:59:03;;;;;;;15.20;3.70;;;18.70;1.00;;;;;;5014724;28;20429;-53
2023/09/30 08:01:30;;;;;;;14.93;3.43;;;18.70;1.00;;;;;;5014741;28;20417;-52
2023/09/30 08:03:56;;;;;;;9.77;3.20;;;18.60;1.00;;;;;;5014717;28;20191;-52
2023/09/30 08:06:21;;;;;;;10.27;3.70;;;18.40;1.00;;;;;;5014700;28;20504;-53
2023/09/30 08:08:47;;;;;;;20.93;3.43;;;18.60;1.00;;;;;;5014365;28;20588;-52
2023/09/30 08:11:12;;;;;;;14.60;3.67;;;18.60;1.00;;;;;;5014599;28;20224;-53
2023/09/30 08:13:39;;;;;;;11.63;3.60;;;18.50;1.00;;;;;;5014522;28;20663;-52
2023/09/30 08:16:04;;;;;;;9.37;3.67;;;18.60;1.00;;;;;;5014224;28;20264;-53
2023/09/30 08:18:30;;;;;;;12.10;3.47;;;18.80;1.00;;;;;;5014416;28;20456;-51
2023/09/30 08:20:55;;;;;;;11.63;3.67;;;19.00;1.00;;;;;;5014074;28;20272;-53
2023/09/30 08:23:21;;;;;;;13.07;3.63;;;19.20;1.00;;;;;;5013893;28;20242;-52
2023/09/30 08:25:47;;;;;;;10.57;3.37;;;19.20;1.00;;;;;;5014303;28;20183;-52
2023/09/30 08:28:12;;;;;;;17.67;4.47;;;19.20;1.00;;;;;;5014107;28;20674;-53
2023/09/30 08:30:38;;;;;;;14.17;3.90;;;19.10;1.00;;;;;;5014373;28;20639;-53
2023/09/30 08:33:05;;;;;;;12.50;3.80;;;19.10;1.00;;;;;;5014167;28;20192;-52
2023/09/30 08:35:35;;;;;;;14.10;3.77;;;19.20;1.00;;;;;;5014246;28;20186;-52
2023/09/30 08:38:02;;;;;;;14.03;3.50;;;19.30;1.00;;;;;;5014263;28;20412;-53
2023/09/30 08:40:28;;;;;;;10.47;3.50;;;19.50;1.00;;;;;;5014141;28;20556;-52
2023/09/30 08:42:53;;;;;;;11.17;3.87;;;19.60;1.00;;;;;;5013983;28;20445;-52
2023/09/30 08:45:19;;;;;;;14.63;3.60;;;19.70;1.00;;;;;;5013904;28;20422;-52
2023/09/30 08:47:46;;;;;;;12.33;3.60;;;19.70;1.00;;;;;;5013975;28;20186;-54
2023/09/30 08:50:13;;;;;;;12.40;3.23;;;19.30;1.00;;;;;;5014291;28;20433;-52
2023/09/30 08:52:40;;;;;;;15.13;3.40;;;19.20;1.00;;;;;;5014406;28;20523;-53
2023/09/30 08:55:08;;;;;;;11.23;3.90;;;19.00;1.00;;;;;;5013916;28;20426;-53
2023/09/30 08:57:40;;;;;;;17.50;3.47;;;18.90;1.00;;;;;;5013394;28;20419;-53
2023/09/30 09:00:07;;;;;;;11.37;3.30;;;18.90;1.00;;;;;;5013464;28;20448;-53
2023/09/30 09:02:34;;;;;;;12.57;3.37;;;18.80;1.00;;;;;;5013336;28;20421;-52
2023/09/30 09:05:02;;;;;;;14.30;2.77;;;18.50;1.00;;;;;;5013267;28;20776;-52
2023/09/30 09:07:27;;;;;;;14.87;3.00;;;18.30;1.00;;;;;;5012851;28;20501;-52
2023/09/30 09:10:10;;;;;;;11.10;3.60;;;18.30;1.00;;;;;;5013394;28;20871;-52
2023/09/30 09:12:38;;;;;;;12.50;2.83;;;18.20;1.00;;;;;;5013420;28;20181;-52
2023/09/30 09:15:08;;;;;;;16.10;3.73;;;18.10;1.00;;;;;;5013348;28;20475;-53
2023/09/30 09:17:42;;;;;;;10.70;3.07;;;18.10;1.00;;;;;;5012269;28;20418;-54
2023/09/30 09:20:10;;;;;;;8.93;2.77;;;17.90;1.00;;;;;;5013115;28;20987;-52
2023/09/30 09:22:40;;;;;;;17.30;3.33;;;17.90;1.00;;;;;;5012809;28;20476;-54
2023/09/30 09:25:07;;;;;;;10.00;2.83;;;18.00;1.00;;;;;;5013303;28;20455;-54
2023/09/30 09:27:36;;;;;;;14.30;3.60;;;17.90;1.00;;;;;;5013164;28;20804;-52
2023/09/30 09:30:24;;;;;;;12.90;3.07;;;17.90;1.00;;;;;;5013082;28;20482;-54
2023/09/30 09:33:04;;;;;;;12.40;3.10;;;17.90;1.00;;;;;;5013145;28;20461;-53
2023/09/30 09:35:32;;;;;;;14.80;3.73;;;18.00;1.00;;;;;;5013077;28;20421;-53
2023/09/30 09:37:59;;;;;;;8.67;3.30;;;18.10;1.00;;;;;;5012995;28;20935;-53
2023/09/30 09:40:27;;;;;;;12.43;3.67;;;18.00;1.00;;;;;;5012766;28;20459;-54
2023/09/30 09:42:55;;;;;;;12.27;2.97;;;18.00;1.00;;;;;;5012876;28;20430;-53
2023/09/30 09:45:25;;;;;;;13.60;3.10;;;18.20;1.00;;;;;;5012582;28;20930;-53
2023/09/30 09:47:54;;;;;;;14.35;3.50;;;18.20;1.00;;;;;;5012595;28;20414;-53
2023/09/30 09:50:21;;;;;;;10.80;2.60;;;18.30;1.00;;;;;;5012859;28;20421;-53
2023/09/30 09:52:52;;;;;;;13.03;2.73;;;18.30;1.00;;;;;;5012776;28;20763;-53
2023/09/30 09:55:19;;;;;;;16.10;3.17;;;18.50;1.00;;;;;;5012710;28;20525;-52
2023/09/30 09:57:46;;;;;;;12.30;3.13;;;18.60;1.00;;;;;;5012408;28;20429;-52
2023/09/30 10:00:15;;;;;;;14.60;2.60;;;18.70;1.00;;;;;;5012959;28;20413;-53
2023/09/30 10:02:41;;;;;;;13.67;3.43;;;18.70;1.00;;;;;;5012913;28;20420;-53
2023/09/30 10:05:08;;;;;;;12.57;2.43;;;18.60;1.00;;;;;;5012602;28;20760;-52
2023/09/30 10:07:38;;;;;;;13.80;3.07;;;18.70;1.00;;;;;;5012568;28;20484;-53
2023/09/30 10:10:08;;;;;;;13.67;3.10;;;18.90;1.00;;;;;;5012537;28;20978;-53
2023/09/30 10:12:41;;;;;;;12.50;3.10;;;19.00;1.00;;;;;;5012429;28;21320;-52
2023/09/30 10:15:24;;;;;;;10.73;3.00;;;19.10;1.00;;;;;;5012170;28;20487;-53
2023/09/30 10:18:07;;;;;;;12.10;3.23;;;19.20;1.00;;;;;;5012459;28;20422;-52
2023/09/30 10:20:41;;;;;;;11.50;2.63;;;19.40;1.00;;;;;;5012100;28;20447;-52
2023/09/30 10:23:21;;;;;;;11.60;3.17;;;19.60;1.00;;;;;;5011950;28;20474;-52
2023/09/30 10:25:47;;;;;;;10.13;2.80;;;19.60;1.00;;;;;;5012054;28;20914;-53
2023/09/30 10:28:35;;;;;;;14.93;3.13;;;19.50;1.00;;;;;;5012564;28;20467;-53
2023/09/30 10:31:21;;;;;;;10.83;3.67;;;19.60;1.00;;;;;;5012295;28;20440;-54
2023/09/30 10:34:02;;;;;;;11.90;2.97;;;19.60;1.00;;;;;;5012352;28;20415;-53
2023/09/30 10:36:41;;;;;;;9.03;2.53;;;19.80;1.00;;;;;;5012185;28;20395;-53
2023/09/30 10:39:13;;;;;;;8.23;2.20;;;20.00;1.00;;;;;;5012076;28;20402;-54
2023/09/30 10:41:39;;;;;;;12.47;2.73;;;20.10;1.00;;;;;;5012297;28;20407;-53
2023/09/30 10:44:24;;;;;;;13.30;2.73;;;20.40;1.00;;;;;;5012207;28;20421;-52
2023/09/30 10:46:51;;;;;;;14.90;3.20;;;21.40;1.00;;;;;;5012226;28;20215;-53
2023/09/30 10:49:31;;;;;;;12.50;2.97;;;22.50;1.00;;;;;;5012134;28;20501;-53
2023/09/30 10:52:01;;;;;;;7.23;2.30;;;23.40;1.00;;;;;;5011953;28;20450;-53
2023/09/30 10:54:29;;;;;;;13.80;2.67;;;24.00;1.00;;;;;;5012221;28;20538;-53
2023/09/30 10:56:55;;;;;;;13.07;2.97;;;24.50;1.00;;;;;;5011914;28;21069;-53
2023/09/30 10:59:30;;;;;;;9.67;2.90;;;24.90;1.00;;;;;;5012122;28;20423;-53
2023/09/30 11:01:55;;;;;;;13.23;2.80;;;25.10;1.00;;;;;;5012083;28;20407;-52
2023/09/30 11:04:21;;;;;;;8.30;2.40;;;25.10;1.00;;;;;;5012111;28;20419;-52
2023/09/30 11:06:47;;;;;;;8.33;2.07;;;25.10;1.00;;;;;;5012048;28;20446;-52
2023/09/30 11:09:21;;;;;;;10.10;2.50;;;25.30;1.00;;;;;;5012221;28;20605;-52
2023/09/30 11:11:50;;;;;;;8.90;2.30;;;24.70;1.00;;;;;;5011861;28;20251;-52
2023/09/30 11:14:18;;;;;;;19.63;2.70;;;24.70;1.00;;;;;;5011556;28;20450;-52
2023/09/30 11:16:45;;;;;;;10.30;2.63;;;24.80;1.00;;;;;;5011869;28;20510;-52
2023/09/30 11:19:12;;;;;;;9.60;1.93;;;25.20;1.00;;;;;;5011945;28;20907;-52
2023/09/30 11:21:39;;;;;;;10.60;2.70;;;24.80;1.00;;;;;;5011713;28;20423;-52
2023/09/30 11:24:06;;;;;;;10.50;2.83;;;24.40;1.00;;;;;;5012018;28;20551;-52
2023/09/30 11:26:32;;;;;;;10.20;2.20;;;24.30;1.00;;;;;;5011642;28;20415;-52
2023/09/30 11:29:17;;;;;;;13.60;2.73;;;24.60;1.00;;;;;;5011784;28;20465;-52
2023/09/30 11:31:46;;;;;;;14.93;2.60;;;24.50;1.00;;;;;;5014617;28;20441;-51
2023/09/30 11:34:12;;;;;;;8.73;2.63;;;24.40;1.00;;;;;;5015639;28;20648;-52
2023/09/30 11:36:42;;;;;;;6.70;2.13;;;24.70;1.00;;;;;;5015299;28;20782;-52
2023/09/30 11:39:09;;;;;;;7.73;2.50;;;25.20;1.00;;;;;;5015269;28;20849;-52
2023/09/30 11:41:39;;;;;;;8.37;2.70;;;25.90;1.00;;;;;;5014947;28;20446;-51
2023/09/30 11:44:07;;;;;;;10.63;1.83;;;26.10;1.00;;;;;;5014766;28;20407;-50
2023/09/30 11:46:55;;;;;;;13.03;2.70;;;26.60;1.00;;;;;;5014760;28;20465;-51
2023/09/30 11:49:40;;;;;;;7.87;2.30;;;26.90;1.00;;;;;;5014793;28;20497;-50
2023/09/30 11:52:11;;;;;;;5.87;2.13;;;25.60;1.00;;;;;;5014971;28;20447;-52
2023/09/30 11:54:43;;;;;;;15.90;2.97;;;24.30;1.00;;;;;;5014913;28;20438;-52
2023/09/30 11:57:11;;;;;;;8.90;2.20;;;23.10;1.00;;;;;;5014933;28;20451;-52
2023/09/30 11:59:40;;;;;;;7.00;2.20;;;22.20;1.00;;;;;;5014497;28;20430;-52
2023/09/30 12:02:08;;;;;;;7.50;2.27;;;22.30;1.00;;;;;;5014719;28;20422;-52
2023/09/30 12:04:34;;;;;;;6.60;1.97;;;22.40;1.00;;;;;;5014664;28;20510;-52
2023/09/30 12:07:00;;;;;;;7.57;2.00;;;22.30;1.00;;;;;;5014664;28;20444;-52
2023/09/30 12:09:26;;;;;;;11.80;2.00;;;22.10;1.00;;;;;;5014554;28;20474;-54
2023/09/30 12:11:53;;;;;;;8.17;2.33;;;21.50;1.00;;;;;;5014599;28;20699;-53
2023/09/30 12:14:20;;;;;;;5.37;2.30;;;21.20;1.00;;;;;;5014548;28;20415;-53
2023/09/30 12:16:47;;;;;;;9.63;2.23;;;21.10;1.00;;;;;;5014542;28;20550;-52
2023/09/30 12:19:13;;;;;;;8.60;2.37;;;20.80;1.00;;;;;;5014444;28;20790;-52
2023/09/30 12:21:40;;;;;;;8.53;2.07;;;20.60;1.00;;;;;;5014058;28;20423;-53
2023/09/30 12:24:07;;;;;;;7.30;2.23;;;20.40;1.00;;;;;;5013939;28;20565;-52
2023/09/30 12:26:33;;;;;;;9.67;2.33;;;19.90;1.00;;;;;;5014310;28;20817;-53
2023/09/30 12:28:58;;;;;;;10.17;2.40;;;19.80;1.00;;;;;;5014141;28;20507;-53
2023/09/30 12:31:24;;;;;;;9.50;2.03;;;20.10;1.00;;;;;;5014229;28;20184;-54
2023/09/30 12:33:51;;;;;;;6.63;1.83;;;21.10;1.00;;;;;;5014184;28;20270;-54
2023/09/30 12:36:18;;;;;;;12.20;2.87;;;22.30;1.00;;;;;;5014245;28;20412;-54
2023/09/30 12:38:44;;;;;;;9.30;2.33;;;23.40;1.00;;;;;;5014118;28;20426;-51
2023/09/30 12:41:10;;;;;;;7.30;1.77;;;24.20;1.00;;;;;;5014161;28;20418;-52
2023/09/30 12:43:36;;;;;;;7.57;1.87;;;24.90;1.00;;;;;;5012957;28;20418;-52